createdAt,value
2018-10-02T00:00:07.840Z,0
2018-10-02T00:00:48.408Z,0
2018-10-02T00:01:28.973Z,0
2018-10-02T00:02:09.536Z,0
2018-10-02T00:02:50.086Z,0
2018-10-02T00:03:30.641Z,0
2018-10-02T00:04:11.197Z,0
2018-10-02T00:04:51.744Z,0
2018-10-02T00:05:32.330Z,0
2018-10-02T00:06:12.878Z,0
2018-10-02T00:06:53.434Z,0
2018-10-02T00:07:34.039Z,0
2018-10-02T00:08:14.586Z,0
2018-10-02T00:08:55.196Z,0
2018-10-02T00:09:35.760Z,0
2018-10-02T00:10:16.271Z,0
2018-10-02T00:10:56.835Z,0
2018-10-02T00:11:37.393Z,0
2018-10-02T00:12:17.956Z,0
2018-10-02T00:12:58.540Z,0
2018-10-02T00:13:39.098Z,0
2018-10-02T00:14:19.657Z,0
2018-10-02T00:15:00.201Z,0
2018-10-02T00:15:40.754Z,0
2018-10-02T00:16:21.316Z,0
2018-10-02T00:17:01.896Z,0
2018-10-02T00:17:42.448Z,0
2018-10-02T00:18:22.998Z,0
2018-10-02T00:19:03.567Z,0
2018-10-02T00:19:44.123Z,0
2018-10-02T00:20:24.694Z,0
2018-10-02T00:21:05.272Z,0
2018-10-02T00:21:45.823Z,0
2018-10-02T00:22:26.367Z,0
2018-10-02T00:23:06.919Z,0
2018-10-02T00:23:47.485Z,0
2018-10-02T00:24:28.037Z,0
2018-10-02T00:25:08.590Z,0
2018-10-02T00:25:49.136Z,0
2018-10-02T00:26:29.689Z,0
2018-10-02T00:27:10.247Z,0
2018-10-02T00:27:50.803Z,0
2018-10-02T00:28:31.365Z,0
2018-10-02T00:29:11.922Z,0
2018-10-02T00:29:52.478Z,0
2018-10-02T00:30:33.056Z,0
2018-10-02T00:31:13.654Z,0
2018-10-02T00:31:54.367Z,0
2018-10-02T00:32:34.800Z,0
2018-10-02T00:33:15.360Z,0
2018-10-02T00:33:55.919Z,0
2018-10-02T00:34:36.482Z,0
2018-10-02T00:35:17.036Z,0
2018-10-02T00:35:57.604Z,0
2018-10-02T00:36:38.171Z,0
2018-10-02T00:37:18.734Z,0
2018-10-02T00:37:59.415Z,0
2018-10-02T00:38:40.017Z,0
2018-10-02T00:39:20.574Z,0
2018-10-02T00:40:01.142Z,0
2018-10-02T00:40:41.702Z,0
2018-10-02T00:41:22.271Z,0
2018-10-02T00:42:02.827Z,0
2018-10-02T00:42:43.420Z,0
2018-10-02T00:43:23.981Z,0
2018-10-02T00:44:04.545Z,0
2018-10-02T00:44:45.134Z,0
2018-10-02T00:45:25.685Z,0
2018-10-02T00:46:06.237Z,0
2018-10-02T00:46:46.817Z,0
2018-10-02T00:47:27.375Z,0
2018-10-02T00:48:07.929Z,0
2018-10-02T00:48:48.478Z,0
2018-10-02T00:49:29.043Z,0
2018-10-02T00:50:09.594Z,0
2018-10-02T00:50:50.148Z,0
2018-10-02T00:51:30.703Z,0
2018-10-02T00:52:11.291Z,0
2018-10-02T00:52:51.853Z,0
2018-10-02T00:53:32.438Z,0
2018-10-02T00:54:13.025Z,0
2018-10-02T00:54:53.560Z,0
2018-10-02T00:55:34.113Z,0
2018-10-02T00:56:14.721Z,0
2018-10-02T00:56:55.274Z,0
2018-10-02T00:57:35.827Z,0
2018-10-02T00:58:16.375Z,0
2018-10-02T00:58:56.936Z,0
2018-10-02T00:59:37.483Z,0
2018-10-02T01:00:18.050Z,0
2018-10-02T01:00:58.626Z,0
2018-10-02T01:01:39.169Z,0
2018-10-02T01:02:19.731Z,0
2018-10-02T01:03:00.298Z,0
2018-10-02T01:03:40.869Z,0
2018-10-02T01:04:21.432Z,0
2018-10-02T01:05:01.971Z,0
2018-10-02T01:05:42.510Z,0
2018-10-02T01:06:23.082Z,0
2018-10-02T01:07:03.629Z,0
2018-10-02T01:07:44.193Z,0
2018-10-02T01:08:24.737Z,0
2018-10-02T01:09:05.318Z,0
2018-10-02T01:09:45.866Z,0
2018-10-02T01:10:26.432Z,0
2018-10-02T01:11:06.982Z,0
2018-10-02T01:11:47.540Z,0
2018-10-02T01:12:28.096Z,0
2018-10-02T01:13:08.663Z,0
2018-10-02T01:13:49.259Z,0
2018-10-02T01:14:29.808Z,0
2018-10-02T01:15:10.369Z,0
2018-10-02T01:15:50.942Z,0
2018-10-02T01:16:31.502Z,0
2018-10-02T01:17:12.061Z,0
2018-10-02T01:17:52.642Z,0
2018-10-02T01:18:33.192Z,0
2018-10-02T01:19:13.754Z,0
2018-10-02T01:19:54.311Z,0
2018-10-02T01:20:34.878Z,0
2018-10-02T01:21:15.440Z,0
2018-10-02T01:21:55.991Z,0
2018-10-02T01:22:36.556Z,0
2018-10-02T01:23:17.129Z,0
2018-10-02T01:23:57.669Z,0
2018-10-02T01:24:38.259Z,0
2018-10-02T01:25:18.865Z,0
2018-10-02T01:25:59.450Z,0
2018-10-02T01:26:40.013Z,0
2018-10-02T01:27:20.572Z,0
2018-10-02T01:28:01.167Z,0
2018-10-02T01:28:41.711Z,0
2018-10-02T01:29:22.262Z,0
2018-10-02T01:30:02.821Z,0
2018-10-02T01:30:43.396Z,0
2018-10-02T01:31:23.930Z,0
2018-10-02T01:32:04.487Z,0
2018-10-02T01:32:45.048Z,0
2018-10-02T01:33:25.605Z,0
2018-10-02T01:34:06.160Z,0
2018-10-02T01:34:46.708Z,0
2018-10-02T01:35:27.287Z,0
2018-10-02T01:36:07.832Z,0
2018-10-02T01:36:48.383Z,0
2018-10-02T01:37:28.944Z,0
2018-10-02T01:38:09.514Z,0
2018-10-02T01:38:50.065Z,0
2018-10-02T01:39:30.610Z,0
2018-10-02T01:40:11.162Z,0
2018-10-02T01:40:51.733Z,0
2018-10-02T01:41:32.281Z,0
2018-10-02T01:42:12.865Z,0
2018-10-02T01:42:53.428Z,0
2018-10-02T01:43:33.984Z,0
2018-10-02T01:44:14.546Z,0
2018-10-02T01:44:55.099Z,0
2018-10-02T01:45:35.656Z,0
2018-10-02T01:46:16.210Z,0
2018-10-02T01:46:56.766Z,0
2018-10-02T01:47:37.333Z,0
2018-10-02T01:48:17.894Z,0
2018-10-02T01:48:58.488Z,0
2018-10-02T01:49:39.061Z,0
2018-10-02T01:50:19.629Z,0
2018-10-02T01:51:00.173Z,0
2018-10-02T01:51:40.730Z,0
2018-10-02T01:52:21.283Z,0
2018-10-02T01:53:01.835Z,0
2018-10-02T01:53:42.391Z,0
2018-10-02T01:54:22.954Z,0
2018-10-02T01:55:03.500Z,0
2018-10-02T01:55:44.059Z,0
2018-10-02T01:56:24.618Z,0
2018-10-02T01:57:05.165Z,0
2018-10-02T01:57:45.727Z,0
2018-10-02T01:58:26.294Z,0
2018-10-02T01:59:06.862Z,0
2018-10-02T01:59:47.425Z,0
2018-10-02T02:00:27.988Z,0
2018-10-02T02:01:08.543Z,0
2018-10-02T02:01:49.090Z,0
2018-10-02T02:02:29.653Z,0
2018-10-02T02:03:10.209Z,0
2018-10-02T02:03:50.762Z,0
2018-10-02T02:04:31.331Z,0
2018-10-02T02:05:11.907Z,0
2018-10-02T02:05:52.473Z,0
2018-10-02T02:06:33.045Z,0
2018-10-02T02:07:13.595Z,0
2018-10-02T02:07:54.168Z,0
2018-10-02T02:08:34.732Z,0
2018-10-02T02:09:15.296Z,0
2018-10-02T02:09:55.849Z,0
2018-10-02T02:10:36.397Z,0
2018-10-02T02:11:16.962Z,0
2018-10-02T02:11:57.519Z,0
2018-10-02T02:12:38.069Z,0
2018-10-02T02:13:18.626Z,0
2018-10-02T02:13:59.192Z,0
2018-10-02T02:14:39.740Z,0
2018-10-02T02:15:20.356Z,0
2018-10-02T02:16:00.859Z,0
2018-10-02T02:16:41.412Z,0
2018-10-02T02:17:21.954Z,0
2018-10-02T02:18:02.513Z,0
2018-10-02T02:18:43.076Z,0
2018-10-02T02:19:23.631Z,0
2018-10-02T02:20:04.191Z,0
2018-10-02T02:20:44.756Z,0
2018-10-02T02:21:25.304Z,0
2018-10-02T02:22:05.855Z,0
2018-10-02T02:22:46.397Z,0
2018-10-02T02:23:26.964Z,0
2018-10-02T02:24:07.550Z,0
2018-10-02T02:24:48.110Z,0
2018-10-02T02:25:29.648Z,0
2018-10-02T02:26:10.218Z,0
2018-10-02T02:26:50.770Z,0
2018-10-02T02:27:31.328Z,0
2018-10-02T02:28:11.876Z,0
2018-10-02T02:28:52.442Z,0
2018-10-02T02:29:32.996Z,0
2018-10-02T02:30:13.548Z,0
2018-10-02T02:30:54.176Z,0
2018-10-02T02:31:34.744Z,0
2018-10-02T02:32:15.340Z,0
2018-10-02T02:32:55.907Z,0
2018-10-02T02:33:36.488Z,0
2018-10-02T02:34:17.047Z,0
2018-10-02T02:34:57.604Z,0
2018-10-02T02:35:38.162Z,0
2018-10-02T02:36:18.772Z,0
2018-10-02T02:36:59.341Z,0
2018-10-02T02:37:39.887Z,0
2018-10-02T02:38:20.448Z,0
2018-10-02T02:39:01.004Z,0
2018-10-02T02:39:41.568Z,0
2018-10-02T02:40:22.142Z,0
2018-10-02T02:41:02.694Z,0
2018-10-02T02:41:43.254Z,0
2018-10-02T02:42:23.811Z,0
2018-10-02T02:43:04.417Z,0
2018-10-02T02:43:44.988Z,0
2018-10-02T02:44:25.543Z,0
2018-10-02T02:45:06.107Z,0
2018-10-02T02:45:46.665Z,0
2018-10-02T02:46:27.226Z,0
2018-10-02T02:47:07.779Z,0
2018-10-02T02:47:48.350Z,0
2018-10-02T02:48:28.905Z,0
2018-10-02T02:49:09.495Z,0
2018-10-02T02:49:50.047Z,0
2018-10-02T02:50:30.632Z,0
2018-10-02T02:51:11.206Z,0
2018-10-02T02:51:51.740Z,0
2018-10-02T02:52:32.362Z,0
2018-10-02T02:53:12.973Z,0
2018-10-02T02:53:53.532Z,0
2018-10-02T02:54:34.087Z,0
2018-10-02T02:55:14.643Z,0
2018-10-02T02:55:55.200Z,0
2018-10-02T02:56:35.753Z,0
2018-10-02T02:57:16.295Z,0
2018-10-02T02:57:56.848Z,0
2018-10-02T02:58:37.405Z,0
2018-10-02T02:59:17.946Z,0
2018-10-02T02:59:58.493Z,0
2018-10-02T03:00:39.039Z,0
2018-10-02T03:01:19.594Z,0
2018-10-02T03:02:00.154Z,0
2018-10-02T03:02:40.712Z,0
2018-10-02T03:03:21.281Z,0
2018-10-02T03:04:01.863Z,0
2018-10-02T03:04:42.373Z,0
2018-10-02T03:05:22.920Z,0
2018-10-02T03:06:03.471Z,0
2018-10-02T03:06:44.020Z,0
2018-10-02T03:07:24.567Z,0
2018-10-02T03:08:05.157Z,0
2018-10-02T03:08:45.709Z,0
2018-10-02T03:09:26.275Z,0
2018-10-02T03:10:06.826Z,0
2018-10-02T03:10:47.386Z,0
2018-10-02T03:11:27.953Z,0
2018-10-02T03:12:08.686Z,0
2018-10-02T03:12:49.231Z,0
2018-10-02T03:13:29.797Z,0
2018-10-02T03:14:10.404Z,0
2018-10-02T03:14:50.963Z,0
2018-10-02T03:15:31.576Z,0
2018-10-02T03:16:12.122Z,0
2018-10-02T03:16:52.663Z,0
2018-10-02T03:17:33.214Z,0
2018-10-02T03:18:13.766Z,0
2018-10-02T03:18:54.325Z,0
2018-10-02T03:19:34.879Z,0
2018-10-02T03:20:15.446Z,0
2018-10-02T03:20:56.001Z,0
2018-10-02T03:21:36.616Z,0
2018-10-02T03:22:17.116Z,0
2018-10-02T03:22:57.716Z,0
2018-10-02T03:23:38.319Z,0
2018-10-02T03:24:18.887Z,0
2018-10-02T03:24:59.432Z,0
2018-10-02T03:25:40.005Z,0
2018-10-02T03:26:20.595Z,0
2018-10-02T03:27:01.151Z,0
2018-10-02T03:27:41.691Z,0
2018-10-02T03:28:22.273Z,0
2018-10-02T03:29:02.825Z,0
2018-10-02T03:29:43.397Z,0
2018-10-02T03:30:23.952Z,0
2018-10-02T03:31:04.506Z,0
2018-10-02T03:31:45.055Z,0
2018-10-02T03:32:25.624Z,0
2018-10-02T03:33:06.182Z,0
2018-10-02T03:33:46.736Z,0
2018-10-02T03:34:27.298Z,0
2018-10-02T03:35:07.854Z,0
2018-10-02T03:35:48.402Z,0
2018-10-02T03:36:28.983Z,0
2018-10-02T03:37:09.550Z,0
2018-10-02T03:37:50.214Z,0
2018-10-02T03:38:30.684Z,0
2018-10-02T03:39:11.257Z,0
2018-10-02T03:39:51.833Z,0
2018-10-02T03:40:32.400Z,0
2018-10-02T03:41:12.979Z,0
2018-10-02T03:41:53.538Z,0
2018-10-02T03:42:34.103Z,0
2018-10-02T03:43:14.660Z,0
2018-10-02T03:43:55.211Z,0
2018-10-02T03:44:35.805Z,0
2018-10-02T03:45:16.359Z,0
2018-10-02T03:45:56.918Z,0
2018-10-02T03:46:37.473Z,0
2018-10-02T03:47:18.031Z,0
2018-10-02T03:47:58.596Z,0
2018-10-02T03:48:39.171Z,0
2018-10-02T03:49:19.715Z,0
2018-10-02T03:50:00.262Z,0
2018-10-02T03:50:40.821Z,0
2018-10-02T03:51:21.413Z,0
2018-10-02T03:52:01.975Z,0
2018-10-02T03:52:42.542Z,0
2018-10-02T03:53:23.092Z,0
2018-10-02T03:54:03.654Z,0
2018-10-02T03:54:44.228Z,0
2018-10-02T03:55:24.804Z,0
2018-10-02T03:56:05.378Z,0
2018-10-02T03:56:45.913Z,0
2018-10-02T03:57:26.482Z,0
2018-10-02T03:58:07.051Z,0
2018-10-02T03:58:47.610Z,0
2018-10-02T03:59:28.176Z,0
2018-10-02T04:00:08.774Z,0
2018-10-02T04:00:50.163Z,0
2018-10-02T04:01:30.711Z,0
2018-10-02T04:02:11.274Z,0
2018-10-02T04:02:51.842Z,0
2018-10-02T04:03:32.477Z,0
2018-10-02T04:04:12.985Z,0
2018-10-02T04:04:53.659Z,0
2018-10-02T04:05:34.213Z,0
2018-10-02T04:06:14.784Z,0
2018-10-02T04:06:55.355Z,0
2018-10-02T04:07:36.108Z,0
2018-10-02T04:08:16.682Z,0
2018-10-02T04:08:57.261Z,0
2018-10-02T04:09:37.959Z,0
2018-10-02T04:10:18.513Z,0
2018-10-02T04:10:59.059Z,0
2018-10-02T04:11:39.605Z,0
2018-10-02T04:12:20.164Z,0
2018-10-02T04:13:00.734Z,0
2018-10-02T04:13:41.285Z,0
2018-10-02T04:14:21.832Z,0
2018-10-02T04:15:02.404Z,0
2018-10-02T04:15:43.030Z,0
2018-10-02T04:16:23.579Z,0
2018-10-02T04:17:04.309Z,0
2018-10-02T04:17:45.226Z,0
2018-10-02T04:18:25.966Z,0
2018-10-02T04:19:06.527Z,0
2018-10-02T04:19:47.082Z,0
2018-10-02T04:20:27.626Z,0
2018-10-02T04:21:08.560Z,0
2018-10-02T04:21:49.168Z,0
2018-10-02T04:22:29.871Z,0
2018-10-02T04:23:10.441Z,0
2018-10-02T04:23:51.006Z,0
2018-10-02T04:24:31.567Z,0
2018-10-02T04:25:12.231Z,0
2018-10-02T04:25:53.155Z,0
2018-10-02T04:26:33.718Z,0
2018-10-02T04:27:14.418Z,0
2018-10-02T04:27:55.005Z,0
2018-10-02T04:28:35.705Z,0
2018-10-02T04:29:16.264Z,0
2018-10-02T04:29:57.213Z,0
2018-10-02T04:30:37.805Z,0
2018-10-02T04:31:18.371Z,0
2018-10-02T04:31:59.146Z,0
2018-10-02T04:32:39.710Z,0
2018-10-02T04:33:20.264Z,0
2018-10-02T04:34:01.283Z,0
2018-10-02T04:34:41.790Z,0
2018-10-02T04:35:23.053Z,0
2018-10-02T04:36:03.625Z,0
2018-10-02T04:36:44.180Z,0
2018-10-02T04:37:24.729Z,0
2018-10-02T04:38:05.312Z,0
2018-10-02T04:38:45.867Z,0
2018-10-02T04:39:26.474Z,0
2018-10-02T04:40:07.018Z,0
2018-10-02T04:40:47.591Z,0
2018-10-02T04:41:28.137Z,0
2018-10-02T04:42:08.717Z,0
2018-10-02T04:42:49.417Z,0
2018-10-02T04:43:30.054Z,0
2018-10-02T04:44:10.834Z,0
2018-10-02T04:44:51.397Z,0
2018-10-02T04:45:31.971Z,0
2018-10-02T04:46:12.541Z,0
2018-10-02T04:46:53.173Z,0
2018-10-02T04:47:33.877Z,0
2018-10-02T04:48:14.559Z,0
2018-10-02T04:48:55.144Z,0
2018-10-02T04:49:35.782Z,0
2018-10-02T04:50:16.627Z,0
2018-10-02T04:50:57.188Z,0
2018-10-02T04:51:37.758Z,0
2018-10-02T04:52:18.313Z,0
2018-10-02T04:52:58.875Z,0
2018-10-02T04:53:39.436Z,0
2018-10-02T04:54:19.998Z,0
2018-10-02T04:55:01.261Z,0
2018-10-02T04:55:42.417Z,0
2018-10-02T04:56:23.412Z,0
2018-10-02T04:57:04.306Z,0
2018-10-02T04:57:44.865Z,0
2018-10-02T04:58:25.698Z,0
2018-10-02T04:59:06.992Z,0
2018-10-02T04:59:47.760Z,0
2018-10-02T05:00:28.493Z,0
2018-10-02T05:01:09.131Z,0
2018-10-02T05:01:49.714Z,0
2018-10-02T05:02:30.399Z,0
2018-10-02T05:03:11.028Z,0
2018-10-02T05:03:51.584Z,0
2018-10-02T05:04:32.139Z,0
2018-10-02T05:05:12.681Z,0
2018-10-02T05:05:53.239Z,0
2018-10-02T05:06:33.819Z,0
2018-10-02T05:07:14.383Z,0
2018-10-02T05:07:54.929Z,0
2018-10-02T05:08:35.494Z,0
2018-10-02T05:09:16.046Z,0
2018-10-02T05:09:56.604Z,0
2018-10-02T05:10:37.175Z,0
2018-10-02T05:11:17.735Z,5
2018-10-02T05:11:58.298Z,0
2018-10-02T05:12:38.850Z,5
2018-10-02T05:13:19.418Z,5
2018-10-02T05:14:00.006Z,5
2018-10-02T05:14:40.534Z,5
2018-10-02T05:15:21.164Z,5
2018-10-02T05:16:01.711Z,5
2018-10-02T05:16:42.267Z,5
2018-10-02T05:17:22.831Z,5
2018-10-02T05:18:03.395Z,10
2018-10-02T05:18:43.960Z,10
2018-10-02T05:19:24.528Z,10
2018-10-02T05:20:05.079Z,10
2018-10-02T05:20:45.810Z,10
2018-10-02T05:21:26.196Z,10
2018-10-02T05:22:06.762Z,10
2018-10-02T05:22:47.315Z,15
2018-10-02T05:23:27.872Z,15
2018-10-02T05:24:08.449Z,10
2018-10-02T05:24:48.991Z,15
2018-10-02T05:25:29.548Z,15
2018-10-02T05:26:10.114Z,15
2018-10-02T05:26:50.657Z,15
2018-10-02T05:27:31.284Z,15
2018-10-02T05:28:11.762Z,15
2018-10-02T05:28:52.323Z,15
2018-10-02T05:29:32.868Z,20
2018-10-02T05:30:13.416Z,15
2018-10-02T05:30:53.978Z,20
2018-10-02T05:31:34.536Z,20
2018-10-02T05:32:15.085Z,20
2018-10-02T05:32:55.704Z,20
2018-10-02T05:33:36.257Z,20
2018-10-02T05:34:16.796Z,20
2018-10-02T05:34:57.431Z,20
2018-10-02T05:35:38.014Z,25
2018-10-02T05:36:18.480Z,25
2018-10-02T05:36:59.084Z,25
2018-10-02T05:37:39.639Z,30
2018-10-02T05:38:20.198Z,25
2018-10-02T05:39:00.756Z,25
2018-10-02T05:39:41.338Z,25
2018-10-02T05:40:21.894Z,25
2018-10-02T05:41:02.443Z,30
2018-10-02T05:41:43.016Z,30
2018-10-02T05:42:23.572Z,30
2018-10-02T05:43:04.151Z,30
2018-10-02T05:43:44.696Z,30
2018-10-02T05:44:25.254Z,35
2018-10-02T05:45:05.821Z,40
2018-10-02T05:45:46.377Z,35
2018-10-02T05:46:27.439Z,40
2018-10-02T05:47:08.010Z,40
2018-10-02T05:47:48.615Z,35
2018-10-02T05:48:29.193Z,40
2018-10-02T05:49:09.753Z,45
2018-10-02T05:49:50.328Z,40
2018-10-02T05:50:30.952Z,45
2018-10-02T05:51:11.445Z,50
2018-10-02T05:51:52.153Z,40
2018-10-02T05:52:33.139Z,50
2018-10-02T05:53:13.711Z,45
2018-10-02T05:53:54.271Z,45
2018-10-02T05:54:34.829Z,50
2018-10-02T05:55:15.393Z,50
2018-10-02T05:55:56.036Z,50
2018-10-02T05:56:36.597Z,50
2018-10-02T05:57:17.153Z,55
2018-10-02T05:57:57.752Z,45
2018-10-02T05:58:38.309Z,50
2018-10-02T05:59:18.883Z,45
2018-10-02T05:59:59.442Z,55
2018-10-02T06:00:39.996Z,55
2018-10-02T06:01:20.558Z,55
2018-10-02T06:02:01.114Z,55
2018-10-02T06:02:41.689Z,55
2018-10-02T06:03:22.281Z,55
2018-10-02T06:04:02.848Z,60
2018-10-02T06:04:43.408Z,50
2018-10-02T06:05:23.960Z,55
2018-10-02T06:06:04.531Z,55
2018-10-02T06:06:45.103Z,50
2018-10-02T06:07:25.656Z,65
2018-10-02T06:08:06.228Z,60
2018-10-02T06:08:47.831Z,50
2018-10-02T06:09:28.427Z,50
2018-10-02T06:10:08.964Z,55
2018-10-02T06:10:49.510Z,55
2018-10-02T06:11:30.059Z,55
2018-10-02T06:12:10.617Z,55
2018-10-02T06:12:51.175Z,55
2018-10-02T06:13:31.846Z,55
2018-10-02T06:14:12.401Z,55
2018-10-02T06:14:52.977Z,60
2018-10-02T06:15:33.535Z,60
2018-10-02T06:16:14.095Z,60
2018-10-02T06:16:54.651Z,60
2018-10-02T06:17:35.194Z,60
2018-10-02T06:18:15.761Z,60
2018-10-02T06:18:56.329Z,60
2018-10-02T06:19:36.887Z,60
2018-10-02T06:20:17.449Z,60
2018-10-02T06:20:58.019Z,60
2018-10-02T06:21:38.591Z,60
2018-10-02T06:22:19.156Z,65
2018-10-02T06:22:59.750Z,65
2018-10-02T06:23:40.339Z,65
2018-10-02T06:24:20.898Z,65
2018-10-02T06:25:01.482Z,65
2018-10-02T06:25:42.037Z,65
2018-10-02T06:26:22.605Z,65
2018-10-02T06:27:03.186Z,65
2018-10-02T06:27:43.744Z,65
2018-10-02T06:28:24.302Z,70
2018-10-02T06:29:04.897Z,75
2018-10-02T06:29:45.446Z,75
2018-10-02T06:30:26.039Z,85
2018-10-02T06:31:06.607Z,95
2018-10-02T06:31:47.389Z,100
2018-10-02T06:32:27.954Z,100
2018-10-02T06:33:08.524Z,110
2018-10-02T06:33:49.151Z,120
2018-10-02T06:34:29.711Z,125
2018-10-02T06:35:10.269Z,135
2018-10-02T06:35:50.837Z,140
2018-10-02T06:36:31.457Z,145
2018-10-02T06:37:12.005Z,150
2018-10-02T06:37:52.683Z,150
2018-10-02T06:38:33.469Z,155
2018-10-02T06:39:13.819Z,160
2018-10-02T06:39:54.363Z,165
2018-10-02T06:40:34.934Z,165
2018-10-02T06:41:15.474Z,160
2018-10-02T06:41:56.051Z,160
2018-10-02T06:42:36.611Z,165
2018-10-02T06:43:17.165Z,170
2018-10-02T06:43:57.717Z,180
2018-10-02T06:44:38.364Z,180
2018-10-02T06:45:18.891Z,180
2018-10-02T06:45:59.458Z,185
2018-10-02T06:46:40.016Z,185
2018-10-02T06:47:20.575Z,185
2018-10-02T06:48:01.160Z,180
2018-10-02T06:48:41.716Z,180
2018-10-02T06:49:22.279Z,180
2018-10-02T06:50:02.835Z,180
2018-10-02T06:50:43.498Z,185
2018-10-02T06:51:24.226Z,190
2018-10-02T06:52:04.659Z,190
2018-10-02T06:52:45.267Z,190
2018-10-02T06:53:25.657Z,190
2018-10-02T06:54:06.229Z,190
2018-10-02T06:54:46.828Z,190
2018-10-02T06:55:27.389Z,190
2018-10-02T06:56:07.957Z,190
2018-10-02T06:56:48.607Z,190
2018-10-02T06:57:29.349Z,180
2018-10-02T06:58:10.257Z,180
2018-10-02T06:58:50.818Z,185
2018-10-02T06:59:31.372Z,180
2018-10-02T07:00:11.920Z,180
2018-10-02T07:00:52.475Z,185
2018-10-02T07:01:33.039Z,185
2018-10-02T07:02:13.590Z,185
2018-10-02T07:02:54.206Z,190
2018-10-02T07:03:34.731Z,190
2018-10-02T07:04:15.295Z,190
2018-10-02T07:04:55.850Z,190
2018-10-02T07:05:36.400Z,195
2018-10-02T07:06:16.984Z,200
2018-10-02T07:06:57.515Z,210
2018-10-02T07:07:38.073Z,220
2018-10-02T07:08:18.633Z,220
2018-10-02T07:08:59.255Z,220
2018-10-02T07:09:39.733Z,220
2018-10-02T07:10:20.301Z,220
2018-10-02T07:11:00.862Z,200
2018-10-02T07:11:41.405Z,195
2018-10-02T07:12:21.969Z,180
2018-10-02T07:13:03.127Z,170
2018-10-02T07:13:43.696Z,170
2018-10-02T07:14:24.282Z,170
2018-10-02T07:15:04.882Z,165
2018-10-02T07:15:45.367Z,165
2018-10-02T07:16:25.937Z,170
2018-10-02T07:17:06.496Z,180
2018-10-02T07:17:47.062Z,165
2018-10-02T07:18:27.609Z,160
2018-10-02T07:19:08.174Z,130
2018-10-02T07:19:48.805Z,115
2018-10-02T07:20:29.362Z,100
2018-10-02T07:21:09.902Z,95
2018-10-02T07:21:50.462Z,85
2018-10-02T07:22:31.038Z,75
2018-10-02T07:23:11.593Z,70
2018-10-02T07:23:52.158Z,65
2018-10-02T07:24:32.720Z,65
2018-10-02T07:25:13.324Z,65
2018-10-02T07:25:53.876Z,65
2018-10-02T07:26:34.517Z,70
2018-10-02T07:27:15.134Z,70
2018-10-02T07:27:55.706Z,75
2018-10-02T07:28:36.165Z,85
2018-10-02T07:29:16.709Z,90
2018-10-02T07:29:57.271Z,95
2018-10-02T07:30:37.893Z,100
2018-10-02T07:31:18.396Z,105
2018-10-02T07:31:58.951Z,110
2018-10-02T07:32:39.593Z,115
2018-10-02T07:33:20.080Z,120
2018-10-02T07:34:00.626Z,125
2018-10-02T07:34:41.193Z,130
2018-10-02T07:35:21.770Z,130
2018-10-02T07:36:02.329Z,130
2018-10-02T07:36:42.967Z,135
2018-10-02T07:37:23.442Z,140
2018-10-02T07:38:04.009Z,150
2018-10-02T07:38:44.748Z,155
2018-10-02T07:39:25.138Z,160
2018-10-02T07:40:05.703Z,185
2018-10-02T07:40:46.258Z,205
2018-10-02T07:41:26.873Z,295
2018-10-02T07:42:07.493Z,360
2018-10-02T07:42:47.935Z,440
2018-10-02T07:43:28.494Z,805
2018-10-02T07:44:09.054Z,955
2018-10-02T07:44:49.620Z,940
2018-10-02T07:45:30.192Z,1070
2018-10-02T07:46:10.750Z,1120
2018-10-02T07:46:51.322Z,1150
2018-10-02T07:47:31.954Z,1040
2018-10-02T07:48:12.462Z,1050
2018-10-02T07:48:53.025Z,905
2018-10-02T07:49:33.585Z,825
2018-10-02T07:50:14.155Z,700
2018-10-02T07:50:54.755Z,595
2018-10-02T07:51:35.289Z,515
2018-10-02T07:52:15.838Z,425
2018-10-02T07:52:56.391Z,370
2018-10-02T07:53:37.018Z,350
2018-10-02T07:54:17.511Z,450
2018-10-02T07:54:58.084Z,435
2018-10-02T07:55:38.808Z,520
2018-10-02T07:56:19.202Z,665
2018-10-02T07:56:59.853Z,645
2018-10-02T07:57:40.351Z,715
2018-10-02T07:58:20.918Z,765
2018-10-02T07:59:01.514Z,735
2018-10-02T07:59:42.152Z,800
2018-10-02T08:00:22.626Z,585
2018-10-02T08:01:04.134Z,480
2018-10-02T08:01:44.699Z,470
2018-10-02T08:02:25.280Z,580
2018-10-02T08:03:05.874Z,770
2018-10-02T08:03:46.427Z,1050
2018-10-02T08:04:26.975Z,1145
2018-10-02T08:05:07.708Z,1155
2018-10-02T08:05:48.150Z,1205
2018-10-02T08:06:28.678Z,955
2018-10-02T08:07:09.245Z,835
2018-10-02T08:07:49.802Z,805
2018-10-02T08:08:30.379Z,1260
2018-10-02T08:09:10.944Z,1390
2018-10-02T08:09:51.502Z,1400
2018-10-02T08:10:32.065Z,1525
2018-10-02T08:11:12.623Z,1545
2018-10-02T08:11:53.275Z,1235
2018-10-02T08:12:33.762Z,715
2018-10-02T08:13:14.302Z,635
2018-10-02T08:13:54.868Z,335
2018-10-02T08:14:35.520Z,340
2018-10-02T08:15:15.981Z,345
2018-10-02T08:15:56.542Z,300
2018-10-02T08:16:37.113Z,275
2018-10-02T08:17:17.694Z,270
2018-10-02T08:17:58.294Z,245
2018-10-02T08:18:38.821Z,265
2018-10-02T08:19:19.395Z,380
2018-10-02T08:19:59.996Z,370
2018-10-02T08:20:40.514Z,390
2018-10-02T08:21:21.058Z,330
2018-10-02T08:22:01.611Z,340
2018-10-02T08:22:42.180Z,375
2018-10-02T08:23:22.727Z,300
2018-10-02T08:24:03.336Z,295
2018-10-02T08:24:43.874Z,320
2018-10-02T08:25:24.430Z,350
2018-10-02T08:26:04.981Z,330
2018-10-02T08:26:45.723Z,315
2018-10-02T08:27:26.165Z,350
2018-10-02T08:28:06.685Z,290
2018-10-02T08:28:47.244Z,260
2018-10-02T08:29:27.910Z,240
2018-10-02T08:30:08.470Z,255
2018-10-02T08:30:48.922Z,200
2018-10-02T08:31:29.490Z,205
2018-10-02T08:32:10.073Z,195
2018-10-02T08:32:50.745Z,195
2018-10-02T08:33:31.213Z,190
2018-10-02T08:34:11.779Z,195
2018-10-02T08:34:52.341Z,195
2018-10-02T08:35:32.911Z,180
2018-10-02T08:36:13.596Z,170
2018-10-02T08:36:54.071Z,155
2018-10-02T08:37:34.647Z,150
2018-10-02T08:38:15.214Z,145
2018-10-02T08:38:55.834Z,145
2018-10-02T08:39:36.331Z,150
2018-10-02T08:40:16.902Z,155
2018-10-02T08:40:57.496Z,165
2018-10-02T08:41:38.056Z,180
2018-10-02T08:42:18.619Z,185
2018-10-02T08:42:59.164Z,190
2018-10-02T08:43:39.814Z,190
2018-10-02T08:44:20.282Z,180
2018-10-02T08:45:01.002Z,175
2018-10-02T08:45:41.408Z,165
2018-10-02T08:46:22.005Z,150
2018-10-02T08:47:02.572Z,145
2018-10-02T08:47:43.189Z,135
2018-10-02T08:48:23.691Z,130
2018-10-02T08:49:04.250Z,125
2018-10-02T08:49:44.820Z,120
2018-10-02T08:50:25.438Z,120
2018-10-02T08:51:05.983Z,120
2018-10-02T08:51:46.603Z,120
2018-10-02T08:52:27.073Z,115
2018-10-02T08:53:07.635Z,115
2018-10-02T08:53:48.232Z,115
2018-10-02T08:54:28.762Z,110
2018-10-02T08:55:09.332Z,110
2018-10-02T08:55:49.919Z,110
2018-10-02T08:56:30.476Z,115
2018-10-02T08:57:11.028Z,115
2018-10-02T08:57:51.604Z,120
2018-10-02T08:58:32.164Z,125
2018-10-02T08:59:12.715Z,135
2018-10-02T08:59:53.281Z,145
2018-10-02T09:00:33.909Z,150
2018-10-02T09:01:14.417Z,155
2018-10-02T09:01:54.974Z,155
2018-10-02T09:02:35.551Z,155
2018-10-02T09:03:16.179Z,155
2018-10-02T09:03:56.663Z,150
2018-10-02T09:04:37.233Z,150
2018-10-02T09:05:17.797Z,160
2018-10-02T09:05:58.349Z,160
2018-10-02T09:06:38.960Z,165
2018-10-02T09:07:19.521Z,170
2018-10-02T09:08:00.104Z,175
2018-10-02T09:08:40.668Z,180
2018-10-02T09:09:21.238Z,185
2018-10-02T09:10:01.800Z,185
2018-10-02T09:10:42.364Z,175
2018-10-02T09:11:22.936Z,165
2018-10-02T09:12:03.491Z,155
2018-10-02T09:12:44.052Z,145
2018-10-02T09:13:24.617Z,145
2018-10-02T09:14:05.178Z,145
2018-10-02T09:14:45.743Z,140
2018-10-02T09:15:26.369Z,135
2018-10-02T09:16:07.031Z,135
2018-10-02T09:16:47.533Z,130
2018-10-02T09:17:28.044Z,125
2018-10-02T09:18:08.622Z,120
2018-10-02T09:18:49.189Z,120
2018-10-02T09:19:29.741Z,115
2018-10-02T09:20:10.311Z,110
2018-10-02T09:20:50.927Z,110
2018-10-02T09:21:31.487Z,120
2018-10-02T09:22:11.984Z,125
2018-10-02T09:22:52.556Z,135
2018-10-02T09:23:33.130Z,145
2018-10-02T09:24:13.694Z,160
2018-10-02T09:24:54.381Z,170
2018-10-02T09:25:34.803Z,180
2018-10-02T09:26:15.361Z,185
2018-10-02T09:26:55.927Z,205
2018-10-02T09:27:36.520Z,225
2018-10-02T09:28:17.049Z,230
2018-10-02T09:28:57.605Z,230
2018-10-02T09:29:38.159Z,205
2018-10-02T09:30:18.819Z,205
2018-10-02T09:30:59.434Z,195
2018-10-02T09:31:39.885Z,205
2018-10-02T09:32:20.454Z,205
2018-10-02T09:33:01.028Z,195
2018-10-02T09:33:41.678Z,205
2018-10-02T09:34:22.161Z,215
2018-10-02T09:35:02.714Z,215
2018-10-02T09:35:43.273Z,215
2018-10-02T09:36:23.860Z,230
2018-10-02T09:37:04.581Z,220
2018-10-02T09:37:45.044Z,205
2018-10-02T09:38:25.624Z,195
2018-10-02T09:39:06.200Z,190
2018-10-02T09:39:46.820Z,180
2018-10-02T09:40:27.326Z,165
2018-10-02T09:41:07.919Z,155
2018-10-02T09:41:48.520Z,140
2018-10-02T09:42:29.096Z,125
2018-10-02T09:43:09.809Z,120